首页
METAR-TAF:

METAR-TAF

机场 :

Eau Claire, 威斯康辛州, 美国

纬度: 44-51-55N, 经度: 091-29-06W, 海拔: 277米

当前天气观测

该预报发布于1小时和2分钟前的19:56 UTC
风速12节,风向西转西北,有时为19节阵风
温度 25°C
湿度 34%
气压 1014 hPa
能見度: 16.1公里
散云层高于6500英尺

METAR: KEAU 231956Z 29012G19KT 10SM SCT065 25/08 A2995 RMK AO2 SLP139 T02500078

时间: 15:58 (20:58 UTC)

预报

该预报发布于3小时和38分钟前的17:20 UTC
预报有效从23日的 18点(UTC)到 24日的 18点(UTC)
风速8节,风向西
能見度: 10公里
散云层高于8000英尺
散云层高于25000英尺
从 23日的 2000点(UTC)
风速8节,风向西转西南
能見度: 10公里
少量云层高于25000英尺
从 24日的 0000点(UTC)
风速3节,风向南转西南
能見度: 10公里
天空无云
从 24日的 1500点(UTC)
风速7节,风向
能見度: 10公里
散云层高于25000英尺

TAF: KEAU 231720Z 2318/2418 26008KT P6SM SCT080 SCT250 FM232000 25008KT P6SM FEW250 FM240000 20003KT P6SM SKC FM241500 18007KT P6SM SCT250

超过4000个机场的气象观测和天气预报(METAR&TAF报告)。

可查询的气象台以黄色和红色小点在地图上表示。

将鼠标移到小点上方,可查看气象台名称。

然后点击查看天气观测和预报。

如需切换地图:点击带黑十字的绿色按钮放大地图;点击带横线的绿色按钮缩小地图;或者点击绿色箭头查看邻近地区的地图。


METAR-TAF: